sensor_id;sensor_type;location;lat;lon;timestamp;P1;durP1;ratioP1;P2;durP2;ratioP2
57810;SDS011;43640;47.550;7.590;2022-09-16T00:01:46;4.13;;;2.03;;
57810;SDS011;43640;47.550;7.590;2022-09-16T00:03:47;2.28;;;1.80;;
57810;SDS011;43640;47.550;7.590;2022-09-16T00:05:49;2.85;;;2.13;;
57810;SDS011;43640;47.550;7.590;2022-09-16T00:07:51;5.47;;;2.28;;
57810;SDS011;43640;47.550;7.590;2022-09-16T00:09:53;3.20;;;2.10;;
57810;SDS011;43640;47.550;7.590;2022-09-16T00:11:54;3.92;;;2.40;;
57810;SDS011;43640;47.550;7.590;2022-09-16T00:13:56;3.85;;;2.90;;
57810;SDS011;43640;47.550;7.590;2022-09-16T00:15:57;3.20;;;2.90;;
57810;SDS011;43640;47.550;7.590;2022-09-16T00:17:58;6.18;;;3.90;;
57810;SDS011;43640;47.550;7.590;2022-09-16T00:19:59;5.05;;;3.33;;
57810;SDS011;43640;47.550;7.590;2022-09-16T00:22:01;7.32;;;3.40;;
57810;SDS011;43640;47.550;7.590;2022-09-16T00:24:02;5.03;;;3.70;;
57810;SDS011;43640;47.550;7.590;2022-09-16T00:26:04;3.67;;;2.95;;
57810;SDS011;43640;47.550;7.590;2022-09-16T00:28:05;2.95;;;2.60;;
57810;SDS011;43640;47.550;7.590;2022-09-16T00:30:07;3.55;;;3.03;;
57810;SDS011;43640;47.550;7.590;2022-09-16T00:32:09;2.97;;;2.67;;
57810;SDS011;43640;47.550;7.590;2022-09-16T00:34:10;3.42;;;2.70;;
57810;SDS011;43640;47.550;7.590;2022-09-16T00:36:15;6.00;;;2.70;;
57810;SDS011;43640;47.550;7.590;2022-09-16T00:38:17;4.25;;;2.50;;
57810;SDS011;43640;47.550;7.590;2022-09-16T00:40:18;4.32;;;2.50;;
57810;SDS011;43640;47.550;7.590;2022-09-16T00:42:20;2.83;;;2.33;;
57810;SDS011;43640;47.550;7.590;2022-09-16T00:46:42;2.75;;;2.10;;
57810;SDS011;43640;47.550;7.590;2022-09-16T00:48:44;2.72;;;2.45;;
57810;SDS011;43640;47.550;7.590;2022-09-16T00:50:46;2.28;;;2.08;;
57810;SDS011;43640;47.550;7.590;2022-09-16T00:52:49;2.50;;;2.10;;
57810;SDS011;43640;47.550;7.590;2022-09-16T00:54:52;3.85;;;2.33;;
57810;SDS011;43640;47.550;7.590;2022-09-16T00:56:54;2.88;;;2.00;;
57810;SDS011;43640;47.550;7.590;2022-09-16T00:59:06;2.63;;;2.03;;
57810;SDS011;43640;47.550;7.590;2022-09-16T01:01:09;2.72;;;2.20;;
57810;SDS011;43640;47.550;7.590;2022-09-16T01:03:10;4.97;;;2.10;;
57810;SDS011;43640;47.550;7.590;2022-09-16T01:05:13;4.75;;;2.30;;
57810;SDS011;43640;47.550;7.590;2022-09-16T01:07:15;4.00;;;2.20;;
57810;SDS011;43640;47.550;7.590;2022-09-16T01:09:18;2.30;;;2.10;;
57810;SDS011;43640;47.550;7.590;2022-09-16T01:11:21;2.25;;;2.05;;
57810;SDS011;43640;47.550;7.590;2022-09-16T01:13:22;3.90;;;2.35;;
57810;SDS011;43640;47.550;7.590;2022-09-16T01:15:25;3.85;;;2.45;;
57810;SDS011;43640;47.550;7.590;2022-09-16T01:17:34;2.88;;;2.58;;
57810;SDS011;43640;47.550;7.590;2022-09-16T01:32:27;4.47;;;2.17;;
57810;SDS011;43640;47.550;7.590;2022-09-16T01:41:03;3.08;;;2.78;;
57810;SDS011;43640;47.550;7.590;2022-09-16T01:49:41;2.55;;;1.95;;
57810;SDS011;43640;47.550;7.590;2022-09-16T01:51:49;3.90;;;1.90;;
57810;SDS011;43640;47.550;7.590;2022-09-16T01:54:01;3.63;;;2.25;;
57810;SDS011;43640;47.550;7.590;2022-09-16T01:56:08;4.57;;;2.78;;
57810;SDS011;43640;47.550;7.590;2022-09-16T02:00:32;3.80;;;1.92;;
57810;SDS011;43640;47.550;7.590;2022-09-16T02:02:41;3.72;;;2.50;;
57810;SDS011;43640;47.550;7.590;2022-09-16T02:04:46;3.28;;;2.17;;
57810;SDS011;43640;47.550;7.590;2022-09-16T02:06:48;3.83;;;2.72;;
57810;SDS011;43640;47.550;7.590;2022-09-16T02:08:52;2.78;;;2.22;;
57810;SDS011;43640;47.550;7.590;2022-09-16T02:10:56;2.97;;;2.30;;
57810;SDS011;43640;47.550;7.590;2022-09-16T02:13:04;4.28;;;2.38;;
57810;SDS011;43640;47.550;7.590;2022-09-16T02:15:07;2.45;;;2.20;;
57810;SDS011;43640;47.550;7.590;2022-09-16T02:17:15;3.00;;;2.70;;
57810;SDS011;43640;47.550;7.590;2022-09-16T02:20:05;3.17;;;2.47;;
57810;SDS011;43640;47.550;7.590;2022-09-16T02:21:40;4.32;;;2.60;;
57810;SDS011;43640;47.550;7.590;2022-09-16T02:23:47;2.88;;;2.40;;
57810;SDS011;43640;47.550;7.590;2022-09-16T02:25:50;5.57;;;2.20;;
57810;SDS011;43640;47.550;7.590;2022-09-16T02:27:52;2.60;;;2.40;;
57810;SDS011;43640;47.550;7.590;2022-09-16T02:29:55;4.22;;;2.45;;
57810;SDS011;43640;47.550;7.590;2022-09-16T02:31:58;3.63;;;2.53;;
57810;SDS011;43640;47.550;7.590;2022-09-16T02:34:11;3.28;;;2.15;;
57810;SDS011;43640;47.550;7.590;2022-09-16T02:36:15;4.78;;;2.80;;
57810;SDS011;43640;47.550;7.590;2022-09-16T02:38:20;2.53;;;2.33;;
57810;SDS011;43640;47.550;7.590;2022-09-16T02:40:24;3.22;;;2.70;;
57810;SDS011;43640;47.550;7.590;2022-09-16T02:42:27;4.25;;;2.65;;
57810;SDS011;43640;47.550;7.590;2022-09-16T02:44:29;3.90;;;2.70;;
57810;SDS011;43640;47.550;7.590;2022-09-16T02:48:47;3.47;;;3.00;;
57810;SDS011;43640;47.550;7.590;2022-09-16T02:51:05;3.53;;;2.78;;
57810;SDS011;43640;47.550;7.590;2022-09-16T02:55:21;3.10;;;2.80;;
57810;SDS011;43640;47.550;7.590;2022-09-16T02:57:28;3.50;;;2.90;;
57810;SDS011;43640;47.550;7.590;2022-09-16T02:59:29;3.95;;;2.70;;
57810;SDS011;43640;47.550;7.590;2022-09-16T03:01:32;3.75;;;2.83;;
57810;SDS011;43640;47.550;7.590;2022-09-16T03:03:34;3.15;;;2.83;;
57810;SDS011;43640;47.550;7.590;2022-09-16T03:05:35;4.00;;;2.85;;
57810;SDS011;43640;47.550;7.590;2022-09-16T03:07:37;4.85;;;2.78;;
57810;SDS011;43640;47.550;7.590;2022-09-16T03:09:43;3.97;;;2.58;;
57810;SDS011;43640;47.550;7.590;2022-09-16T03:14:01;3.70;;;2.80;;
57810;SDS011;43640;47.550;7.590;2022-09-16T03:16:11;5.32;;;3.00;;
57810;SDS011;43640;47.550;7.590;2022-09-16T03:18:21;5.35;;;2.92;;
57810;SDS011;43640;47.550;7.590;2022-09-16T03:22:36;3.97;;;2.83;;
57810;SDS011;43640;47.550;7.590;2022-09-16T03:29:21;4.97;;;3.20;;
57810;SDS011;43640;47.550;7.590;2022-09-16T03:31:27;5.97;;;3.15;;
57810;SDS011;43640;47.550;7.590;2022-09-16T03:35:30;3.83;;;3.35;;
57810;SDS011;43640;47.550;7.590;2022-09-16T03:37:34;3.65;;;2.83;;
57810;SDS011;43640;47.550;7.590;2022-09-16T03:39:37;3.85;;;2.85;;
57810;SDS011;43640;47.550;7.590;2022-09-16T03:41:38;3.70;;;2.72;;
57810;SDS011;43640;47.550;7.590;2022-09-16T03:43:39;3.22;;;2.60;;
57810;SDS011;43640;47.550;7.590;2022-09-16T03:45:41;4.25;;;2.70;;
57810;SDS011;43640;47.550;7.590;2022-09-16T03:47:43;4.85;;;3.10;;
57810;SDS011;43640;47.550;7.590;2022-09-16T03:49:46;4.35;;;2.88;;
57810;SDS011;43640;47.550;7.590;2022-09-16T03:51:47;2.97;;;2.53;;
57810;SDS011;43640;47.550;7.590;2022-09-16T03:53:49;3.83;;;2.75;;
57810;SDS011;43640;47.550;7.590;2022-09-16T03:55:50;4.10;;;3.38;;
57810;SDS011;43640;47.550;7.590;2022-09-16T03:57:52;5.18;;;3.40;;
57810;SDS011;43640;47.550;7.590;2022-09-16T03:59:53;3.63;;;3.17;;
57810;SDS011;43640;47.550;7.590;2022-09-16T04:01:55;6.43;;;3.03;;
57810;SDS011;43640;47.550;7.590;2022-09-16T04:03:56;3.22;;;2.92;;
57810;SDS011;43640;47.550;7.590;2022-09-16T04:05:57;5.22;;;4.32;;
57810;SDS011;43640;47.550;7.590;2022-09-16T04:07:59;8.07;;;6.00;;
57810;SDS011;43640;47.550;7.590;2022-09-16T04:10:00;6.57;;;5.88;;
57810;SDS011;43640;47.550;7.590;2022-09-16T04:12:02;7.07;;;4.55;;
57810;SDS011;43640;47.550;7.590;2022-09-16T04:14:04;5.60;;;3.85;;
57810;SDS011;43640;47.550;7.590;2022-09-16T04:16:06;4.25;;;3.85;;
57810;SDS011;43640;47.550;7.590;2022-09-16T04:18:08;3.88;;;3.20;;
57810;SDS011;43640;47.550;7.590;2022-09-16T04:20:09;3.42;;;2.80;;
57810;SDS011;43640;47.550;7.590;2022-09-16T04:22:10;5.05;;;2.85;;
57810;SDS011;43640;47.550;7.590;2022-09-16T04:24:12;4.53;;;2.70;;
57810;SDS011;43640;47.550;7.590;2022-09-16T04:26:14;5.18;;;3.40;;
57810;SDS011;43640;47.550;7.590;2022-09-16T04:28:15;6.80;;;3.00;;
57810;SDS011;43640;47.550;7.590;2022-09-16T04:30:16;8.18;;;3.00;;
57810;SDS011;43640;47.550;7.590;2022-09-16T04:32:18;5.93;;;2.92;;
57810;SDS011;43640;47.550;7.590;2022-09-16T04:34:20;3.03;;;2.67;;
57810;SDS011;43640;47.550;7.590;2022-09-16T04:36:21;3.50;;;2.92;;
57810;SDS011;43640;47.550;7.590;2022-09-16T04:38:22;4.75;;;2.88;;
57810;SDS011;43640;47.550;7.590;2022-09-16T04:40:23;3.03;;;2.72;;
57810;SDS011;43640;47.550;7.590;2022-09-16T04:42:25;5.47;;;2.80;;
57810;SDS011;43640;47.550;7.590;2022-09-16T04:44:26;5.53;;;2.58;;
57810;SDS011;43640;47.550;7.590;2022-09-16T04:46:30;5.38;;;2.72;;
57810;SDS011;43640;47.550;7.590;2022-09-16T04:48:33;3.00;;;2.35;;
57810;SDS011;43640;47.550;7.590;2022-09-16T04:50:34;3.95;;;2.30;;
57810;SDS011;43640;47.550;7.590;2022-09-16T04:52:36;4.47;;;2.55;;
57810;SDS011;43640;47.550;7.590;2022-09-16T04:54:40;4.18;;;2.30;;
57810;SDS011;43640;47.550;7.590;2022-09-16T04:56:41;4.47;;;2.33;;
57810;SDS011;43640;47.550;7.590;2022-09-16T04:58:43;3.50;;;2.60;;
57810;SDS011;43640;47.550;7.590;2022-09-16T05:00:45;4.68;;;2.90;;
57810;SDS011;43640;47.550;7.590;2022-09-16T05:02:46;4.07;;;2.88;;
57810;SDS011;43640;47.550;7.590;2022-09-16T05:04:49;4.50;;;2.60;;
57810;SDS011;43640;47.550;7.590;2022-09-16T05:06:51;3.13;;;2.58;;
57810;SDS011;43640;47.550;7.590;2022-09-16T05:08:53;2.63;;;2.20;;
57810;SDS011;43640;47.550;7.590;2022-09-16T05:10:54;2.88;;;2.20;;
57810;SDS011;43640;47.550;7.590;2022-09-16T05:12:56;3.47;;;2.30;;
57810;SDS011;43640;47.550;7.590;2022-09-16T05:14:57;3.28;;;2.58;;
57810;SDS011;43640;47.550;7.590;2022-09-16T05:16:58;4.38;;;2.65;;
57810;SDS011;43640;47.550;7.590;2022-09-16T05:19:00;3.13;;;2.13;;
57810;SDS011;43640;47.550;7.590;2022-09-16T05:21:06;5.68;;;3.13;;
57810;SDS011;43640;47.550;7.590;2022-09-16T05:23:07;4.28;;;3.33;;
57810;SDS011;43640;47.550;7.590;2022-09-16T05:25:10;6.13;;;3.70;;
57810;SDS011;43640;47.550;7.590;2022-09-16T05:27:11;5.53;;;3.10;;
57810;SDS011;43640;47.550;7.590;2022-09-16T05:29:14;4.97;;;2.97;;
57810;SDS011;43640;47.550;7.590;2022-09-16T05:31:17;4.80;;;2.60;;
57810;SDS011;43640;47.550;7.590;2022-09-16T05:33:18;4.75;;;2.72;;
57810;SDS011;43640;47.550;7.590;2022-09-16T05:35:20;4.60;;;2.55;;
57810;SDS011;43640;47.550;7.590;2022-09-16T05:37:21;6.00;;;3.00;;
57810;SDS011;43640;47.550;7.590;2022-09-16T05:39:23;4.07;;;2.40;;
57810;SDS011;43640;47.550;7.590;2022-09-16T05:41:25;6.25;;;3.00;;
57810;SDS011;43640;47.550;7.590;2022-09-16T05:43:27;5.00;;;2.55;;
57810;SDS011;43640;47.550;7.590;2022-09-16T05:45:29;4.72;;;3.28;;
57810;SDS011;43640;47.550;7.590;2022-09-16T05:47:32;5.35;;;3.00;;
57810;SDS011;43640;47.550;7.590;2022-09-16T05:49:34;3.38;;;2.60;;
57810;SDS011;43640;47.550;7.590;2022-09-16T05:51:36;3.65;;;2.60;;
57810;SDS011;43640;47.550;7.590;2022-09-16T05:53:37;4.50;;;1.95;;
57810;SDS011;43640;47.550;7.590;2022-09-16T05:55:39;4.13;;;2.83;;
57810;SDS011;43640;47.550;7.590;2022-09-16T05:57:40;4.97;;;2.28;;
57810;SDS011;43640;47.550;7.590;2022-09-16T05:59:41;3.53;;;2.53;;
57810;SDS011;43640;47.550;7.590;2022-09-16T06:01:43;3.55;;;2.20;;
57810;SDS011;43640;47.550;7.590;2022-09-16T06:03:45;3.40;;;2.05;;
57810;SDS011;43640;47.550;7.590;2022-09-16T06:05:47;2.65;;;2.25;;
57810;SDS011;43640;47.550;7.590;2022-09-16T06:07:48;3.50;;;2.25;;
57810;SDS011;43640;47.550;7.590;2022-09-16T06:09:50;4.75;;;2.60;;
57810;SDS011;43640;47.550;7.590;2022-09-16T06:11:51;3.03;;;2.20;;
57810;SDS011;43640;47.550;7.590;2022-09-16T06:14:01;5.50;;;2.35;;
57810;SDS011;43640;47.550;7.590;2022-09-16T06:16:03;6.00;;;2.67;;
57810;SDS011;43640;47.550;7.590;2022-09-16T06:18:05;7.80;;;4.68;;
57810;SDS011;43640;47.550;7.590;2022-09-16T06:20:07;4.45;;;3.20;;
57810;SDS011;43640;47.550;7.590;2022-09-16T06:22:14;4.35;;;2.60;;
57810;SDS011;43640;47.550;7.590;2022-09-16T06:24:15;3.20;;;2.75;;
57810;SDS011;43640;47.550;7.590;2022-09-16T06:26:19;5.45;;;3.80;;
57810;SDS011;43640;47.550;7.590;2022-09-16T06:28:20;7.25;;;4.50;;
57810;SDS011;43640;47.550;7.590;2022-09-16T06:30:22;14.95;;;8.98;;
57810;SDS011;43640;47.550;7.590;2022-09-16T06:32:29;6.95;;;4.53;;
57810;SDS011;43640;47.550;7.590;2022-09-16T06:34:30;6.22;;;4.20;;
57810;SDS011;43640;47.550;7.590;2022-09-16T06:36:35;4.93;;;2.83;;
57810;SDS011;43640;47.550;7.590;2022-09-16T06:38:43;7.10;;;3.70;;
57810;SDS011;43640;47.550;7.590;2022-09-16T06:40:44;8.85;;;4.13;;
57810;SDS011;43640;47.550;7.590;2022-09-16T06:42:46;3.50;;;2.50;;
57810;SDS011;43640;47.550;7.590;2022-09-16T06:44:48;2.70;;;2.17;;
57810;SDS011;43640;47.550;7.590;2022-09-16T06:46:49;4.18;;;2.60;;
57810;SDS011;43640;47.550;7.590;2022-09-16T06:48:51;4.10;;;2.90;;
57810;SDS011;43640;47.550;7.590;2022-09-16T06:50:57;5.88;;;3.80;;
57810;SDS011;43640;47.550;7.590;2022-09-16T06:52:58;4.72;;;3.00;;
57810;SDS011;43640;47.550;7.590;2022-09-16T06:55:00;4.20;;;2.60;;
57810;SDS011;43640;47.550;7.590;2022-09-16T06:57:01;3.00;;;2.70;;
57810;SDS011;43640;47.550;7.590;2022-09-16T06:59:02;5.15;;;2.40;;
57810;SDS011;43640;47.550;7.590;2022-09-16T07:01:08;3.10;;;2.40;;
57810;SDS011;43640;47.550;7.590;2022-09-16T07:03:09;5.43;;;3.13;;
57810;SDS011;43640;47.550;7.590;2022-09-16T07:05:11;3.85;;;2.83;;
57810;SDS011;43640;47.550;7.590;2022-09-16T07:07:13;2.67;;;2.20;;
57810;SDS011;43640;47.550;7.590;2022-09-16T07:09:14;3.95;;;2.45;;
57810;SDS011;43640;47.550;7.590;2022-09-16T07:11:17;3.45;;;2.25;;
57810;SDS011;43640;47.550;7.590;2022-09-16T07:13:18;3.10;;;2.13;;
57810;SDS011;43640;47.550;7.590;2022-09-16T07:15:19;2.28;;;1.88;;
57810;SDS011;43640;47.550;7.590;2022-09-16T07:17:21;3.95;;;2.40;;
57810;SDS011;43640;47.550;7.590;2022-09-16T07:19:26;2.95;;;2.15;;
57810;SDS011;43640;47.550;7.590;2022-09-16T07:21:28;2.28;;;1.75;;
57810;SDS011;43640;47.550;7.590;2022-09-16T07:23:31;5.30;;;2.42;;
57810;SDS011;43640;47.550;7.590;2022-09-16T07:25:32;4.32;;;2.00;;
57810;SDS011;43640;47.550;7.590;2022-09-16T07:27:36;3.58;;;2.28;;
57810;SDS011;43640;47.550;7.590;2022-09-16T07:29:37;3.42;;;2.22;;
57810;SDS011;43640;47.550;7.590;2022-09-16T07:31:39;2.20;;;2.00;;
57810;SDS011;43640;47.550;7.590;2022-09-16T07:33:41;3.65;;;2.55;;
57810;SDS011;43640;47.550;7.590;2022-09-16T07:35:43;4.68;;;2.38;;
57810;SDS011;43640;47.550;7.590;2022-09-16T07:37:44;3.28;;;2.13;;
57810;SDS011;43640;47.550;7.590;2022-09-16T07:39:46;3.47;;;2.63;;
57810;SDS011;43640;47.550;7.590;2022-09-16T07:41:47;3.95;;;2.42;;
57810;SDS011;43640;47.550;7.590;2022-09-16T07:43:49;3.25;;;1.83;;
57810;SDS011;43640;47.550;7.590;2022-09-16T07:45:54;3.40;;;2.80;;
57810;SDS011;43640;47.550;7.590;2022-09-16T07:47:56;3.65;;;2.08;;
57810;SDS011;43640;47.550;7.590;2022-09-16T07:49:57;2.20;;;2.00;;
57810;SDS011;43640;47.550;7.590;2022-09-16T07:51:59;4.07;;;2.65;;
57810;SDS011;43640;47.550;7.590;2022-09-16T07:54:01;2.85;;;2.22;;
57810;SDS011;43640;47.550;7.590;2022-09-16T07:56:05;3.05;;;2.40;;
57810;SDS011;43640;47.550;7.590;2022-09-16T07:58:06;3.33;;;2.05;;
57810;SDS011;43640;47.550;7.590;2022-09-16T08:00:08;2.97;;;2.25;;
57810;SDS011;43640;47.550;7.590;2022-09-16T08:02:10;4.68;;;2.70;;
57810;SDS011;43640;47.550;7.590;2022-09-16T08:04:11;3.25;;;2.35;;
57810;SDS011;43640;47.550;7.590;2022-09-16T08:06:14;5.10;;;2.70;;
57810;SDS011;43640;47.550;7.590;2022-09-16T08:08:16;2.78;;;2.30;;
57810;SDS011;43640;47.550;7.590;2022-09-16T08:10:18;5.03;;;2.80;;
57810;SDS011;43640;47.550;7.590;2022-09-16T08:12:19;1.88;;;1.70;;
57810;SDS011;43640;47.550;7.590;2022-09-16T08:14:20;3.72;;;2.70;;
57810;SDS011;43640;47.550;7.590;2022-09-16T08:16:22;6.25;;;2.80;;
57810;SDS011;43640;47.550;7.590;2022-09-16T08:18:23;5.78;;;2.90;;
57810;SDS011;43640;47.550;7.590;2022-09-16T08:20:24;3.85;;;2.85;;
57810;SDS011;43640;47.550;7.590;2022-09-16T08:22:27;4.30;;;2.92;;
57810;SDS011;43640;47.550;7.590;2022-09-16T08:24:28;3.35;;;3.05;;
57810;SDS011;43640;47.550;7.590;2022-09-16T08:26:29;4.22;;;3.15;;
57810;SDS011;43640;47.550;7.590;2022-09-16T08:28:31;3.55;;;2.85;;
57810;SDS011;43640;47.550;7.590;2022-09-16T08:30:51;2.08;;;1.83;;
57810;SDS011;43640;47.550;7.590;2022-09-16T08:32:57;7.43;;;3.63;;
57810;SDS011;43640;47.550;7.590;2022-09-16T08:34:58;6.32;;;3.25;;
57810;SDS011;43640;47.550;7.590;2022-09-16T08:36:59;5.75;;;3.40;;
57810;SDS011;43640;47.550;7.590;2022-09-16T08:39:01;3.45;;;2.65;;
57810;SDS011;43640;47.550;7.590;2022-09-16T08:43:25;3.10;;;2.72;;
57810;SDS011;43640;47.550;7.590;2022-09-16T08:45:32;4.65;;;3.80;;
57810;SDS011;43640;47.550;7.590;2022-09-16T08:47:41;6.00;;;2.80;;
57810;SDS011;43640;47.550;7.590;2022-09-16T08:49:45;4.70;;;3.60;;
57810;SDS011;43640;47.550;7.590;2022-09-16T08:51:47;4.60;;;3.17;;
57810;SDS011;43640;47.550;7.590;2022-09-16T08:53:59;4.10;;;3.33;;
57810;SDS011;43640;47.550;7.590;2022-09-16T08:56:02;5.95;;;3.53;;
57810;SDS011;43640;47.550;7.590;2022-09-16T08:58:14;5.43;;;3.53;;
57810;SDS011;43640;47.550;7.590;2022-09-16T09:00:17;5.90;;;3.35;;
57810;SDS011;43640;47.550;7.590;2022-09-16T09:02:23;5.88;;;3.78;;
57810;SDS011;43640;47.550;7.590;2022-09-16T09:04:28;4.72;;;3.63;;
57810;SDS011;43640;47.550;7.590;2022-09-16T09:10:53;5.07;;;4.05;;
57810;SDS011;43640;47.550;7.590;2022-09-16T09:13:00;5.18;;;3.15;;
57810;SDS011;43640;47.550;7.590;2022-09-16T09:19:37;3.75;;;3.10;;
57810;SDS011;43640;47.550;7.590;2022-09-16T09:38:38;3.85;;;3.33;;
57810;SDS011;43640;47.550;7.590;2022-09-16T09:40:45;5.03;;;3.10;;
57810;SDS011;43640;47.550;7.590;2022-09-16T09:42:49;5.43;;;3.10;;
57810;SDS011;43640;47.550;7.590;2022-09-16T09:44:57;4.65;;;3.70;;
57810;SDS011;43640;47.550;7.590;2022-09-16T09:47:04;6.15;;;2.90;;
57810;SDS011;43640;47.550;7.590;2022-09-16T09:51:30;4.78;;;3.45;;
57810;SDS011;43640;47.550;7.590;2022-09-16T09:53:38;6.75;;;3.28;;
57810;SDS011;43640;47.550;7.590;2022-09-16T09:55:40;4.50;;;3.40;;
57810;SDS011;43640;47.550;7.590;2022-09-16T09:57:50;4.45;;;3.15;;
57810;SDS011;43640;47.550;7.590;2022-09-16T10:02:00;4.35;;;3.10;;
57810;SDS011;43640;47.550;7.590;2022-09-16T10:04:04;5.40;;;2.92;;
57810;SDS011;43640;47.550;7.590;2022-09-16T10:06:09;4.63;;;3.28;;
57810;SDS011;43640;47.550;7.590;2022-09-16T10:10:20;4.43;;;3.15;;
57810;SDS011;43640;47.550;7.590;2022-09-16T10:12:29;3.85;;;3.25;;
57810;SDS011;43640;47.550;7.590;2022-09-16T10:14:32;4.32;;;3.55;;
57810;SDS011;43640;47.550;7.590;2022-09-16T10:16:35;4.25;;;3.10;;
57810;SDS011;43640;47.550;7.590;2022-09-16T10:18:37;4.82;;;3.75;;
57810;SDS011;43640;47.550;7.590;2022-09-16T10:20:41;6.53;;;3.35;;
57810;SDS011;43640;47.550;7.590;2022-09-16T10:22:51;4.18;;;2.72;;
57810;SDS011;43640;47.550;7.590;2022-09-16T10:24:55;3.35;;;2.80;;
57810;SDS011;43640;47.550;7.590;2022-09-16T10:26:57;3.08;;;2.65;;
57810;SDS011;43640;47.550;7.590;2022-09-16T10:28:59;4.68;;;3.10;;
57810;SDS011;43640;47.550;7.590;2022-09-16T10:31:01;3.30;;;3.00;;
57810;SDS011;43640;47.550;7.590;2022-09-16T10:33:10;4.88;;;3.00;;
57810;SDS011;43640;47.550;7.590;2022-09-16T10:35:22;2.75;;;2.55;;
57810;SDS011;43640;47.550;7.590;2022-09-16T10:37:24;5.35;;;2.72;;
57810;SDS011;43640;47.550;7.590;2022-09-16T10:39:28;3.45;;;2.50;;
57810;SDS011;43640;47.550;7.590;2022-09-16T10:41:42;7.15;;;3.17;;
57810;SDS011;43640;47.550;7.590;2022-09-16T10:43:47;3.83;;;2.60;;
57810;SDS011;43640;47.550;7.590;2022-09-16T10:45:50;5.05;;;3.10;;
57810;SDS011;43640;47.550;7.590;2022-09-16T10:47:53;2.90;;;2.70;;
57810;SDS011;43640;47.550;7.590;2022-09-16T10:49:56;4.75;;;2.55;;
57810;SDS011;43640;47.550;7.590;2022-09-16T10:52:08;4.47;;;2.72;;
57810;SDS011;43640;47.550;7.590;2022-09-16T10:54:22;3.20;;;2.60;;
57810;SDS011;43640;47.550;7.590;2022-09-16T10:56:27;3.47;;;2.60;;
57810;SDS011;43640;47.550;7.590;2022-09-16T10:58:29;3.75;;;2.88;;
57810;SDS011;43640;47.550;7.590;2022-09-16T11:00:32;4.13;;;3.00;;
57810;SDS011;43640;47.550;7.590;2022-09-16T11:04:59;3.28;;;2.83;;
57810;SDS011;43640;47.550;7.590;2022-09-16T11:09:26;5.38;;;2.92;;
57810;SDS011;43640;47.550;7.590;2022-09-16T11:17:49;3.95;;;2.97;;
57810;SDS011;43640;47.550;7.590;2022-09-16T11:20:02;3.47;;;2.67;;
57810;SDS011;43640;47.550;7.590;2022-09-16T11:24:41;6.18;;;3.30;;
57810;SDS011;43640;47.550;7.590;2022-09-16T11:33:37;3.73;;;2.70;;
57810;SDS011;43640;47.550;7.590;2022-09-16T11:42:34;3.33;;;2.42;;
57810;SDS011;43640;47.550;7.590;2022-09-16T11:44:40;5.22;;;2.63;;
57810;SDS011;43640;47.550;7.590;2022-09-16T11:55:49;4.75;;;3.33;;
57810;SDS011;43640;47.550;7.590;2022-09-16T11:57:55;3.63;;;2.35;;
57810;SDS011;43640;47.550;7.590;2022-09-16T11:59:59;5.05;;;2.40;;
57810;SDS011;43640;47.550;7.590;2022-09-16T12:02:02;3.30;;;2.20;;
57810;SDS011;43640;47.550;7.590;2022-09-16T12:04:12;3.15;;;2.22;;
57810;SDS011;43640;47.550;7.590;2022-09-16T12:06:17;4.60;;;2.08;;
57810;SDS011;43640;47.550;7.590;2022-09-16T12:10:44;3.53;;;2.17;;
57810;SDS011;43640;47.550;7.590;2022-09-16T12:12:51;2.63;;;1.92;;
57810;SDS011;43640;47.550;7.590;2022-09-16T12:14:55;3.95;;;2.33;;
57810;SDS011;43640;47.550;7.590;2022-09-16T12:19:35;4.65;;;2.33;;
57810;SDS011;43640;47.550;7.590;2022-09-16T12:21:39;2.92;;;2.25;;
57810;SDS011;43640;47.550;7.590;2022-09-16T12:23:44;3.92;;;2.30;;
57810;SDS011;43640;47.550;7.590;2022-09-16T12:25:59;3.05;;;2.10;;
57810;SDS011;43640;47.550;7.590;2022-09-16T12:28:03;3.75;;;2.20;;
57810;SDS011;43640;47.550;7.590;2022-09-16T12:30:22;3.95;;;2.45;;
57810;SDS011;43640;47.550;7.590;2022-09-16T12:34:48;2.65;;;2.30;;
57810;SDS011;43640;47.550;7.590;2022-09-16T12:36:58;3.95;;;2.70;;
57810;SDS011;43640;47.550;7.590;2022-09-16T12:39:00;4.03;;;2.55;;
57810;SDS011;43640;47.550;7.590;2022-09-16T12:45:59;5.18;;;2.38;;
57810;SDS011;43640;47.550;7.590;2022-09-16T12:57:27;3.28;;;2.40;;
57810;SDS011;43640;47.550;7.590;2022-09-16T13:01:43;3.90;;;2.20;;
57810;SDS011;43640;47.550;7.590;2022-09-16T13:03:49;3.90;;;2.20;;
57810;SDS011;43640;47.550;7.590;2022-09-16T13:05:52;3.63;;;2.30;;
57810;SDS011;43640;47.550;7.590;2022-09-16T13:07:56;3.30;;;1.92;;
57810;SDS011;43640;47.550;7.590;2022-09-16T13:09:59;3.85;;;2.22;;
57810;SDS011;43640;47.550;7.590;2022-09-16T13:12:23;3.33;;;2.00;;
57810;SDS011;43640;47.550;7.590;2022-09-16T13:14:47;4.18;;;2.20;;
57810;SDS011;43640;47.550;7.590;2022-09-16T13:16:53;4.95;;;2.42;;
57810;SDS011;43640;47.550;7.590;2022-09-16T13:23:17;3.03;;;2.25;;
57810;SDS011;43640;47.550;7.590;2022-09-16T13:25:24;3.78;;;2.22;;
57810;SDS011;43640;47.550;7.590;2022-09-16T13:27:28;2.83;;;2.15;;
57810;SDS011;43640;47.550;7.590;2022-09-16T13:31:45;2.58;;;2.20;;
57810;SDS011;43640;47.550;7.590;2022-09-16T13:33:48;3.95;;;2.63;;
57810;SDS011;43640;47.550;7.590;2022-09-16T13:36:01;4.10;;;2.78;;
57810;SDS011;43640;47.550;7.590;2022-09-16T13:40:23;5.22;;;2.90;;
57810;SDS011;43640;47.550;7.590;2022-09-16T13:42:24;5.70;;;2.85;;
57810;SDS011;43640;47.550;7.590;2022-09-16T13:46:34;3.17;;;2.22;;
57810;SDS011;43640;47.550;7.590;2022-09-16T13:48:40;2.78;;;2.25;;
57810;SDS011;43640;47.550;7.590;2022-09-16T13:50:49;3.58;;;2.50;;
57810;SDS011;43640;47.550;7.590;2022-09-16T13:52:51;2.95;;;2.65;;
57810;SDS011;43640;47.550;7.590;2022-09-16T13:54:54;3.40;;;2.72;;
57810;SDS011;43640;47.550;7.590;2022-09-16T14:01:56;3.00;;;2.53;;
57810;SDS011;43640;47.550;7.590;2022-09-16T14:06:14;3.50;;;2.55;;
57810;SDS011;43640;47.550;7.590;2022-09-16T14:10:42;5.43;;;2.60;;
57810;SDS011;43640;47.550;7.590;2022-09-16T14:14:59;6.35;;;3.75;;
57810;SDS011;43640;47.550;7.590;2022-09-16T14:17:02;4.68;;;2.30;;
57810;SDS011;43640;47.550;7.590;2022-09-16T14:19:46;3.78;;;2.58;;
57810;SDS011;43640;47.550;7.590;2022-09-16T14:21:28;4.97;;;2.80;;
57810;SDS011;43640;47.550;7.590;2022-09-16T14:23:30;2.78;;;1.92;;
57810;SDS011;43640;47.550;7.590;2022-09-16T14:25:33;4.80;;;2.35;;
57810;SDS011;43640;47.550;7.590;2022-09-16T14:27:35;3.50;;;2.03;;
57810;SDS011;43640;47.550;7.590;2022-09-16T14:29:39;4.68;;;2.58;;
57810;SDS011;43640;47.550;7.590;2022-09-16T14:31:40;3.72;;;2.20;;
57810;SDS011;43640;47.550;7.590;2022-09-16T14:33:52;2.95;;;2.35;;
57810;SDS011;43640;47.550;7.590;2022-09-16T14:35:57;4.80;;;2.95;;
57810;SDS011;43640;47.550;7.590;2022-09-16T14:37:59;3.30;;;2.38;;
57810;SDS011;43640;47.550;7.590;2022-09-16T14:40:03;3.92;;;3.53;;
57810;SDS011;43640;47.550;7.590;2022-09-16T14:42:07;3.08;;;2.17;;
57810;SDS011;43640;47.550;7.590;2022-09-16T14:46:19;4.68;;;3.00;;
57810;SDS011;43640;47.550;7.590;2022-09-16T14:48:26;2.65;;;2.15;;
57810;SDS011;43640;47.550;7.590;2022-09-16T14:50:32;4.30;;;2.70;;
57810;SDS011;43640;47.550;7.590;2022-09-16T14:52:36;2.42;;;2.00;;
57810;SDS011;43640;47.550;7.590;2022-09-16T14:54:42;2.17;;;1.95;;
57810;SDS011;43640;47.550;7.590;2022-09-16T14:56:53;3.28;;;2.00;;
57810;SDS011;43640;47.550;7.590;2022-09-16T14:58:55;2.30;;;2.10;;
57810;SDS011;43640;47.550;7.590;2022-09-16T15:00:59;3.85;;;2.50;;
57810;SDS011;43640;47.550;7.590;2022-09-16T15:03:08;2.92;;;2.38;;
57810;SDS011;43640;47.550;7.590;2022-09-16T15:05:22;3.47;;;2.75;;
57810;SDS011;43640;47.550;7.590;2022-09-16T15:07:28;2.60;;;2.40;;
57810;SDS011;43640;47.550;7.590;2022-09-16T15:09:34;4.50;;;2.47;;
57810;SDS011;43640;47.550;7.590;2022-09-16T15:11:43;4.28;;;2.72;;
57810;SDS011;43640;47.550;7.590;2022-09-16T15:13:49;3.90;;;2.70;;